sensor_id;sensor_type;location;lat;lon;timestamp;temperature;humidity
71047;SHT31;58703;48.978;8.982;2023-03-07T00:01:34;2.29;79.36
71047;SHT31;58703;48.978;8.982;2023-03-07T00:04:00;2.25;79.48
71047;SHT31;58703;48.978;8.982;2023-03-07T00:06:26;2.28;79.42
71047;SHT31;58703;48.978;8.982;2023-03-07T00:08:54;2.30;79.34
71047;SHT31;58703;48.978;8.982;2023-03-07T00:11:20;2.36;78.86
71047;SHT31;58703;48.978;8.982;2023-03-07T00:13:46;2.50;78.32
71047;SHT31;58703;48.978;8.982;2023-03-07T00:16:14;2.53;77.97
71047;SHT31;58703;48.978;8.982;2023-03-07T00:18:40;2.49;78.39
71047;SHT31;58703;48.978;8.982;2023-03-07T00:21:08;2.50;78.47
71047;SHT31;58703;48.978;8.982;2023-03-07T00:23:35;2.49;78.29
71047;SHT31;58703;48.978;8.982;2023-03-07T00:26:06;2.48;78.96
71047;SHT31;58703;48.978;8.982;2023-03-07T00:28:32;2.53;78.74
71047;SHT31;58703;48.978;8.982;2023-03-07T00:30:59;2.46;78.90
71047;SHT31;58703;48.978;8.982;2023-03-07T00:33:25;2.50;78.24
71047;SHT31;58703;48.978;8.982;2023-03-07T00:36:02;2.52;78.57
71047;SHT31;58703;48.978;8.982;2023-03-07T00:38:29;2.53;77.58
71047;SHT31;58703;48.978;8.982;2023-03-07T00:41:16;2.53;77.86
71047;SHT31;58703;48.978;8.982;2023-03-07T00:43:42;2.49;78.14
71047;SHT31;58703;48.978;8.982;2023-03-07T00:46:08;2.40;78.41
71047;SHT31;58703;48.978;8.982;2023-03-07T00:48:36;2.36;78.39
71047;SHT31;58703;48.978;8.982;2023-03-07T00:51:05;2.36;78.16
71047;SHT31;58703;48.978;8.982;2023-03-07T00:53:31;2.36;78.07
71047;SHT31;58703;48.978;8.982;2023-03-07T00:56:03;2.42;77.92
71047;SHT31;58703;48.978;8.982;2023-03-07T00:58:32;2.46;77.79
71047;SHT31;58703;48.978;8.982;2023-03-07T01:00:58;2.50;77.50
71047;SHT31;58703;48.978;8.982;2023-03-07T01:03:25;2.57;77.16
71047;SHT31;58703;48.978;8.982;2023-03-07T01:05:51;2.50;77.66
71047;SHT31;58703;48.978;8.982;2023-03-07T01:08:17;2.49;77.70
71047;SHT31;58703;48.978;8.982;2023-03-07T01:10:43;2.52;77.71
71047;SHT31;58703;48.978;8.982;2023-03-07T01:13:10;2.56;77.37
71047;SHT31;58703;48.978;8.982;2023-03-07T01:15:36;2.53;77.51
71047;SHT31;58703;48.978;8.982;2023-03-07T01:18:03;2.57;77.23
71047;SHT31;58703;48.978;8.982;2023-03-07T01:20:30;2.57;77.33
71047;SHT31;58703;48.978;8.982;2023-03-07T01:22:57;2.50;77.71
71047;SHT31;58703;48.978;8.982;2023-03-07T01:25:22;2.49;77.77
71047;SHT31;58703;48.978;8.982;2023-03-07T01:27:48;2.48;77.89
71047;SHT31;58703;48.978;8.982;2023-03-07T01:30:15;2.52;77.71
71047;SHT31;58703;48.978;8.982;2023-03-07T01:32:41;2.53;77.56
71047;SHT31;58703;48.978;8.982;2023-03-07T01:35:07;2.56;77.58
71047;SHT31;58703;48.978;8.982;2023-03-07T01:37:32;2.48;78.05
71047;SHT31;58703;48.978;8.982;2023-03-07T01:39:58;2.53;77.82
71047;SHT31;58703;48.978;8.982;2023-03-07T01:42:23;2.45;77.91
71047;SHT31;58703;48.978;8.982;2023-03-07T01:47:58;2.53;77.50
71047;SHT31;58703;48.978;8.982;2023-03-07T01:50:24;2.60;77.34
71047;SHT31;58703;48.978;8.982;2023-03-07T01:52:56;2.77;76.53
71047;SHT31;58703;48.978;8.982;2023-03-07T01:55:27;2.76;76.80
71047;SHT31;58703;48.978;8.982;2023-03-07T01:57:55;2.83;76.51
71047;SHT31;58703;48.978;8.982;2023-03-07T02:00:23;2.83;76.88
71047;SHT31;58703;48.978;8.982;2023-03-07T02:05:39;3.03;76.85
71047;SHT31;58703;48.978;8.982;2023-03-07T02:08:10;3.01;77.02
71047;SHT31;58703;48.978;8.982;2023-03-07T02:10:37;3.07;76.72
71047;SHT31;58703;48.978;8.982;2023-03-07T02:13:04;3.20;76.96
71047;SHT31;58703;48.978;8.982;2023-03-07T02:15:29;3.20;77.29
71047;SHT31;58703;48.978;8.982;2023-03-07T02:17:57;3.22;76.70
71047;SHT31;58703;48.978;8.982;2023-03-07T02:22:48;3.04;80.04
71047;SHT31;58703;48.978;8.982;2023-03-07T02:27:51;2.91;81.00
71047;SHT31;58703;48.978;8.982;2023-03-07T02:30:17;2.87;81.42
71047;SHT31;58703;48.978;8.982;2023-03-07T02:32:43;2.86;81.64
71047;SHT31;58703;48.978;8.982;2023-03-07T02:35:29;2.83;81.92
71047;SHT31;58703;48.978;8.982;2023-03-07T02:37:58;2.79;81.82
71047;SHT31;58703;48.978;8.982;2023-03-07T02:40:28;2.80;81.79
71047;SHT31;58703;48.978;8.982;2023-03-07T02:42:56;2.80;81.68
71047;SHT31;58703;48.978;8.982;2023-03-07T02:45:22;2.80;81.84
71047;SHT31;58703;48.978;8.982;2023-03-07T02:47:48;2.70;82.51
71047;SHT31;58703;48.978;8.982;2023-03-07T02:50:14;2.77;82.30
71047;SHT31;58703;48.978;8.982;2023-03-07T02:52:40;2.73;82.76
71047;SHT31;58703;48.978;8.982;2023-03-07T02:55:07;2.75;82.87
71047;SHT31;58703;48.978;8.982;2023-03-07T02:57:33;2.77;82.85
71047;SHT31;58703;48.978;8.982;2023-03-07T02:59:58;2.79;82.84
71047;SHT31;58703;48.978;8.982;2023-03-07T03:02:24;2.69;82.92
71047;SHT31;58703;48.978;8.982;2023-03-07T03:04:50;2.64;83.39
71047;SHT31;58703;48.978;8.982;2023-03-07T03:07:15;2.67;83.51
71047;SHT31;58703;48.978;8.982;2023-03-07T03:09:41;2.66;83.72
71047;SHT31;58703;48.978;8.982;2023-03-07T03:12:07;2.67;83.69
71047;SHT31;58703;48.978;8.982;2023-03-07T03:14:33;2.66;83.60
71047;SHT31;58703;48.978;8.982;2023-03-07T03:16:58;2.66;83.75
71047;SHT31;58703;48.978;8.982;2023-03-07T03:19:24;2.63;83.63
71047;SHT31;58703;48.978;8.982;2023-03-07T03:21:49;2.63;84.15
71047;SHT31;58703;48.978;8.982;2023-03-07T03:24:15;2.60;84.53
71047;SHT31;58703;48.978;8.982;2023-03-07T03:26:40;2.63;84.04
71047;SHT31;58703;48.978;8.982;2023-03-07T03:29:06;2.67;83.83
71047;SHT31;58703;48.978;8.982;2023-03-07T03:31:32;2.69;83.96
71047;SHT31;58703;48.978;8.982;2023-03-07T03:33:59;2.72;83.48
71047;SHT31;58703;48.978;8.982;2023-03-07T03:36:25;2.72;83.73
71047;SHT31;58703;48.978;8.982;2023-03-07T03:38:52;2.76;83.32
71047;SHT31;58703;48.978;8.982;2023-03-07T03:41:18;2.72;83.64
71047;SHT31;58703;48.978;8.982;2023-03-07T03:43:43;2.79;83.20
71047;SHT31;58703;48.978;8.982;2023-03-07T03:46:09;2.83;83.13
71047;SHT31;58703;48.978;8.982;2023-03-07T03:48:34;2.87;82.67
71047;SHT31;58703;48.978;8.982;2023-03-07T03:51:05;2.84;82.70
71047;SHT31;58703;48.978;8.982;2023-03-07T03:53:33;2.83;82.88
71047;SHT31;58703;48.978;8.982;2023-03-07T03:58:32;2.79;83.09
71047;SHT31;58703;48.978;8.982;2023-03-07T04:01:03;2.75;83.53
71047;SHT31;58703;48.978;8.982;2023-03-07T04:03:40;2.79;83.38
71047;SHT31;58703;48.978;8.982;2023-03-07T04:06:09;2.79;83.29
71047;SHT31;58703;48.978;8.982;2023-03-07T04:08:36;2.89;82.67
71047;SHT31;58703;48.978;8.982;2023-03-07T04:11:02;2.90;82.65
71047;SHT31;58703;48.978;8.982;2023-03-07T04:13:31;2.93;82.48
71047;SHT31;58703;48.978;8.982;2023-03-07T04:15:56;2.91;82.76
71047;SHT31;58703;48.978;8.982;2023-03-07T04:18:22;2.93;82.64
71047;SHT31;58703;48.978;8.982;2023-03-07T04:20:49;2.91;82.83
71047;SHT31;58703;48.978;8.982;2023-03-07T04:23:16;2.94;82.90
71047;SHT31;58703;48.978;8.982;2023-03-07T04:25:49;2.94;83.26
71047;SHT31;58703;48.978;8.982;2023-03-07T04:28:16;3.03;82.51
71047;SHT31;58703;48.978;8.982;2023-03-07T04:30:41;3.12;82.18
71047;SHT31;58703;48.978;8.982;2023-03-07T04:33:06;3.05;82.29
71047;SHT31;58703;48.978;8.982;2023-03-07T04:35:32;3.00;82.61
71047;SHT31;58703;48.978;8.982;2023-03-07T04:37:57;3.04;82.62
71047;SHT31;58703;48.978;8.982;2023-03-07T04:40:24;3.00;82.66
71047;SHT31;58703;48.978;8.982;2023-03-07T04:42:50;3.05;82.44
71047;SHT31;58703;48.978;8.982;2023-03-07T04:45:15;3.12;81.77
71047;SHT31;58703;48.978;8.982;2023-03-07T04:47:41;3.20;81.33
71047;SHT31;58703;48.978;8.982;2023-03-07T04:50:07;3.21;81.78
71047;SHT31;58703;48.978;8.982;2023-03-07T04:52:33;3.12;82.06
71047;SHT31;58703;48.978;8.982;2023-03-07T04:54:59;3.11;82.19
71047;SHT31;58703;48.978;8.982;2023-03-07T04:57:24;3.10;82.24
71047;SHT31;58703;48.978;8.982;2023-03-07T04:59:50;3.12;82.16
71047;SHT31;58703;48.978;8.982;2023-03-07T05:02:15;3.10;82.11
71047;SHT31;58703;48.978;8.982;2023-03-07T05:04:41;3.10;82.25
71047;SHT31;58703;48.978;8.982;2023-03-07T05:07:06;3.17;81.97
71047;SHT31;58703;48.978;8.982;2023-03-07T05:09:32;3.20;81.64
71047;SHT31;58703;48.978;8.982;2023-03-07T05:11:57;3.17;81.77
71047;SHT31;58703;48.978;8.982;2023-03-07T05:14:23;3.24;81.37
71047;SHT31;58703;48.978;8.982;2023-03-07T05:16:48;3.22;81.44
71047;SHT31;58703;48.978;8.982;2023-03-07T05:19:14;3.27;81.06
71047;SHT31;58703;48.978;8.982;2023-03-07T05:21:39;3.31;80.72
71047;SHT31;58703;48.978;8.982;2023-03-07T05:24:06;3.34;80.55
71047;SHT31;58703;48.978;8.982;2023-03-07T05:26:32;3.32;80.76
71047;SHT31;58703;48.978;8.982;2023-03-07T05:28:58;3.32;80.65
71047;SHT31;58703;48.978;8.982;2023-03-07T05:31:24;3.44;79.87
71047;SHT31;58703;48.978;8.982;2023-03-07T05:33:50;3.39;80.23
71047;SHT31;58703;48.978;8.982;2023-03-07T05:36:16;3.42;79.99
71047;SHT31;58703;48.978;8.982;2023-03-07T05:38:42;3.42;79.89
71047;SHT31;58703;48.978;8.982;2023-03-07T05:41:07;3.48;79.52
71047;SHT31;58703;48.978;8.982;2023-03-07T05:43:33;3.45;79.66
71047;SHT31;58703;48.978;8.982;2023-03-07T05:45:59;3.52;79.15
71047;SHT31;58703;48.978;8.982;2023-03-07T05:48:24;3.51;79.19
71047;SHT31;58703;48.978;8.982;2023-03-07T05:50:50;3.51;79.41
71047;SHT31;58703;48.978;8.982;2023-03-07T05:53:15;3.51;79.19
71047;SHT31;58703;48.978;8.982;2023-03-07T05:55:41;3.46;79.32
71047;SHT31;58703;48.978;8.982;2023-03-07T05:58:06;3.52;78.88
71047;SHT31;58703;48.978;8.982;2023-03-07T06:00:31;3.54;78.66
71047;SHT31;58703;48.978;8.982;2023-03-07T06:02:57;3.55;78.81
71047;SHT31;58703;48.978;8.982;2023-03-07T06:05:25;3.55;78.92
71047;SHT31;58703;48.978;8.982;2023-03-07T06:07:50;3.55;78.96
71047;SHT31;58703;48.978;8.982;2023-03-07T06:10:17;3.50;78.93
71047;SHT31;58703;48.978;8.982;2023-03-07T06:12:43;3.59;78.23
71047;SHT31;58703;48.978;8.982;2023-03-07T06:15:08;3.66;77.82
71047;SHT31;58703;48.978;8.982;2023-03-07T06:17:34;3.69;77.60
71047;SHT31;58703;48.978;8.982;2023-03-07T06:20:00;3.68;77.81
71047;SHT31;58703;48.978;8.982;2023-03-07T06:22:26;3.68;77.63
71047;SHT31;58703;48.978;8.982;2023-03-07T06:24:54;3.69;78.11
71047;SHT31;58703;48.978;8.982;2023-03-07T06:27:20;3.63;77.95
71047;SHT31;58703;48.978;8.982;2023-03-07T06:29:47;3.63;77.95
71047;SHT31;58703;48.978;8.982;2023-03-07T06:32:14;3.68;77.62
71047;SHT31;58703;48.978;8.982;2023-03-07T06:34:39;3.65;77.92
71047;SHT31;58703;48.978;8.982;2023-03-07T06:37:05;3.63;77.98
71047;SHT31;58703;48.978;8.982;2023-03-07T06:39:30;3.69;77.44
71047;SHT31;58703;48.978;8.982;2023-03-07T06:41:56;3.69;77.47
71047;SHT31;58703;48.978;8.982;2023-03-07T06:44:21;3.73;77.31
71047;SHT31;58703;48.978;8.982;2023-03-07T06:46:47;3.72;77.49
71047;SHT31;58703;48.978;8.982;2023-03-07T06:49:13;3.72;77.40
71047;SHT31;58703;48.978;8.982;2023-03-07T06:51:38;3.76;77.16
71047;SHT31;58703;48.978;8.982;2023-03-07T06:54:04;3.78;77.29
71047;SHT31;58703;48.978;8.982;2023-03-07T06:56:29;3.85;76.97
71047;SHT31;58703;48.978;8.982;2023-03-07T06:58:55;3.83;77.04
71047;SHT31;58703;48.978;8.982;2023-03-07T07:01:21;3.79;76.77
71047;SHT31;58703;48.978;8.982;2023-03-07T07:03:50;3.78;77.24
71047;SHT31;58703;48.978;8.982;2023-03-07T07:06:15;3.72;75.36
71047;SHT31;58703;48.978;8.982;2023-03-07T07:08:41;3.68;74.81
71047;SHT31;58703;48.978;8.982;2023-03-07T07:11:06;3.62;75.39
71047;SHT31;58703;48.978;8.982;2023-03-07T07:13:32;3.56;75.73
71047;SHT31;58703;48.978;8.982;2023-03-07T07:16:02;3.62;75.71
71047;SHT31;58703;48.978;8.982;2023-03-07T07:18:30;3.56;75.71
71047;SHT31;58703;48.978;8.982;2023-03-07T07:20:56;3.62;75.71
71047;SHT31;58703;48.978;8.982;2023-03-07T07:23:21;3.69;75.21
71047;SHT31;58703;48.978;8.982;2023-03-07T07:25:47;3.71;74.92
71047;SHT31;58703;48.978;8.982;2023-03-07T07:28:13;3.76;75.14
71047;SHT31;58703;48.978;8.982;2023-03-07T07:30:38;3.69;75.19
71047;SHT31;58703;48.978;8.982;2023-03-07T07:33:03;3.65;75.28
71047;SHT31;58703;48.978;8.982;2023-03-07T07:35:29;3.65;75.41
71047;SHT31;58703;48.978;8.982;2023-03-07T07:37:55;3.62;76.20
71047;SHT31;58703;48.978;8.982;2023-03-07T07:40:20;3.66;75.54
71047;SHT31;58703;48.978;8.982;2023-03-07T07:42:49;3.73;75.34
71047;SHT31;58703;48.978;8.982;2023-03-07T07:45:22;3.78;75.44
71047;SHT31;58703;48.978;8.982;2023-03-07T07:47:48;3.79;75.09
71047;SHT31;58703;48.978;8.982;2023-03-07T07:50:19;3.86;75.12
71047;SHT31;58703;48.978;8.982;2023-03-07T07:52:46;4.03;74.93
71047;SHT31;58703;48.978;8.982;2023-03-07T07:55:12;4.07;74.56
71047;SHT31;58703;48.978;8.982;2023-03-07T07:57:39;4.21;74.12
71047;SHT31;58703;48.978;8.982;2023-03-07T08:00:06;4.29;73.73
71047;SHT31;58703;48.978;8.982;2023-03-07T08:02:33;4.44;72.74
71047;SHT31;58703;48.978;8.982;2023-03-07T08:04:59;4.54;72.95
71047;SHT31;58703;48.978;8.982;2023-03-07T08:07:25;4.62;72.10
71047;SHT31;58703;48.978;8.982;2023-03-07T08:09:50;4.71;71.37
71047;SHT31;58703;48.978;8.982;2023-03-07T08:12:16;4.79;70.68
71047;SHT31;58703;48.978;8.982;2023-03-07T08:14:41;4.81;70.31
71047;SHT31;58703;48.978;8.982;2023-03-07T08:17:07;4.92;70.14
71047;SHT31;58703;48.978;8.982;2023-03-07T08:19:33;4.91;69.92
71047;SHT31;58703;48.978;8.982;2023-03-07T08:21:58;4.95;69.51
71047;SHT31;58703;48.978;8.982;2023-03-07T08:24:24;5.05;69.04
71047;SHT31;58703;48.978;8.982;2023-03-07T08:26:50;5.02;69.65
71047;SHT31;58703;48.978;8.982;2023-03-07T08:29:15;5.04;68.64
71047;SHT31;58703;48.978;8.982;2023-03-07T08:31:44;5.07;68.89
71047;SHT31;58703;48.978;8.982;2023-03-07T08:34:11;5.08;67.44
71047;SHT31;58703;48.978;8.982;2023-03-07T08:36:37;5.18;67.80
71047;SHT31;58703;48.978;8.982;2023-03-07T08:39:04;5.26;67.31
71047;SHT31;58703;48.978;8.982;2023-03-07T08:41:29;5.16;66.56
71047;SHT31;58703;48.978;8.982;2023-03-07T08:43:55;5.15;66.82
71047;SHT31;58703;48.978;8.982;2023-03-07T08:46:20;5.32;66.28
71047;SHT31;58703;48.978;8.982;2023-03-07T08:48:46;5.30;65.22
71047;SHT31;58703;48.978;8.982;2023-03-07T08:51:14;5.61;65.02
71047;SHT31;58703;48.978;8.982;2023-03-07T08:53:40;5.60;65.51
71047;SHT31;58703;48.978;8.982;2023-03-07T08:56:08;5.70;65.03
71047;SHT31;58703;48.978;8.982;2023-03-07T08:58:34;5.75;64.94
71047;SHT31;58703;48.978;8.982;2023-03-07T09:01:00;5.83;64.29
71047;SHT31;58703;48.978;8.982;2023-03-07T09:03:26;5.87;64.86
71047;SHT31;58703;48.978;8.982;2023-03-07T09:05:52;5.93;64.85
71047;SHT31;58703;48.978;8.982;2023-03-07T09:08:17;5.87;64.06
71047;SHT31;58703;48.978;8.982;2023-03-07T09:10:43;5.63;63.66
71047;SHT31;58703;48.978;8.982;2023-03-07T09:13:11;5.56;64.14
71047;SHT31;58703;48.978;8.982;2023-03-07T09:15:38;5.59;63.79
71047;SHT31;58703;48.978;8.982;2023-03-07T09:18:06;5.75;64.58
71047;SHT31;58703;48.978;8.982;2023-03-07T09:20:31;5.59;64.22
71047;SHT31;58703;48.978;8.982;2023-03-07T09:22:57;5.56;64.03
71047;SHT31;58703;48.978;8.982;2023-03-07T09:25:22;5.49;63.66
71047;SHT31;58703;48.978;8.982;2023-03-07T09:27:49;5.50;63.52
71047;SHT31;58703;48.978;8.982;2023-03-07T09:30:15;5.47;62.80
71047;SHT31;58703;48.978;8.982;2023-03-07T09:32:41;5.39;63.24
71047;SHT31;58703;48.978;8.982;2023-03-07T09:35:07;5.46;64.33
71047;SHT31;58703;48.978;8.982;2023-03-07T09:37:34;5.49;64.43
71047;SHT31;58703;48.978;8.982;2023-03-07T09:40:01;5.42;63.77
71047;SHT31;58703;48.978;8.982;2023-03-07T09:42:55;5.49;63.37
71047;SHT31;58703;48.978;8.982;2023-03-07T09:45:45;5.74;63.53
71047;SHT31;58703;48.978;8.982;2023-03-07T09:51:25;5.47;62.50
71047;SHT31;58703;48.978;8.982;2023-03-07T09:56:53;5.53;62.30
71047;SHT31;58703;48.978;8.982;2023-03-07T09:59:42;5.47;62.35
71047;SHT31;58703;48.978;8.982;2023-03-07T10:05:10;5.60;62.44
71047;SHT31;58703;48.978;8.982;2023-03-07T10:07:38;5.81;62.97
71047;SHT31;58703;48.978;8.982;2023-03-07T10:10:13;5.75;62.28
71047;SHT31;58703;48.978;8.982;2023-03-07T10:13:18;5.86;62.19
71047;SHT31;58703;48.978;8.982;2023-03-07T10:18:47;5.67;62.32
71047;SHT31;58703;48.978;8.982;2023-03-07T10:21:32;5.52;61.58
71047;SHT31;58703;48.978;8.982;2023-03-07T10:27:04;5.75;61.83
71047;SHT31;58703;48.978;8.982;2023-03-07T10:32:43;5.63;60.47
71047;SHT31;58703;48.978;8.982;2023-03-07T10:37:58;5.60;60.20
71047;SHT31;58703;48.978;8.982;2023-03-07T10:40:39;5.64;59.54
71047;SHT31;58703;48.978;8.982;2023-03-07T10:43:13;5.46;58.66
71047;SHT31;58703;48.978;8.982;2023-03-07T10:45:39;5.47;59.38
71047;SHT31;58703;48.978;8.982;2023-03-07T10:48:07;5.59;59.94
71047;SHT31;58703;48.978;8.982;2023-03-07T10:50:42;5.69;59.81
71047;SHT31;58703;48.978;8.982;2023-03-07T10:53:25;5.60;59.08
71047;SHT31;58703;48.978;8.982;2023-03-07T10:55:51;5.69;59.60
71047;SHT31;58703;48.978;8.982;2023-03-07T11:03:43;5.35;58.75
71047;SHT31;58703;48.978;8.982;2023-03-07T11:06:30;5.35;57.64
71047;SHT31;58703;48.978;8.982;2023-03-07T11:09:02;5.33;58.01
71047;SHT31;58703;48.978;8.982;2023-03-07T11:11:31;5.32;58.20
71047;SHT31;58703;48.978;8.982;2023-03-07T11:14:08;5.47;58.36
71047;SHT31;58703;48.978;8.982;2023-03-07T11:19:30;5.60;57.15
71047;SHT31;58703;48.978;8.982;2023-03-07T11:21:58;5.61;57.05
71047;SHT31;58703;48.978;8.982;2023-03-07T11:26:55;5.77;56.72
71047;SHT31;58703;48.978;8.982;2023-03-07T11:29:21;5.90;56.74
71047;SHT31;58703;48.978;8.982;2023-03-07T11:32:19;5.91;57.27
71047;SHT31;58703;48.978;8.982;2023-03-07T11:34:58;6.03;58.16
71047;SHT31;58703;48.978;8.982;2023-03-07T11:37:49;5.78;57.23
71047;SHT31;58703;48.978;8.982;2023-03-07T11:40:21;5.86;57.50
71047;SHT31;58703;48.978;8.982;2023-03-07T11:42:59;5.83;57.27
71047;SHT31;58703;48.978;8.982;2023-03-07T11:45:38;5.74;57.41
71047;SHT31;58703;48.978;8.982;2023-03-07T11:50:48;6.04;57.98
71047;SHT31;58703;48.978;8.982;2023-03-07T11:56:16;5.91;57.51
71047;SHT31;58703;48.978;8.982;2023-03-07T12:10:07;5.80;58.02
71047;SHT31;58703;48.978;8.982;2023-03-07T12:12:44;5.98;58.42
71047;SHT31;58703;48.978;8.982;2023-03-07T12:18:03;5.98;57.78
71047;SHT31;58703;48.978;8.982;2023-03-07T12:23:27;6.01;57.47
71047;SHT31;58703;48.978;8.982;2023-03-07T12:26:05;5.91;56.68
71047;SHT31;58703;48.978;8.982;2023-03-07T12:28:44;6.04;57.90
71047;SHT31;58703;48.978;8.982;2023-03-07T12:31:30;6.24;57.19
71047;SHT31;58703;48.978;8.982;2023-03-07T12:34:29;6.25;57.18
71047;SHT31;58703;48.978;8.982;2023-03-07T12:37:05;6.22;56.74
71047;SHT31;58703;48.978;8.982;2023-03-07T12:39:43;6.21;56.07
71047;SHT31;58703;48.978;8.982;2023-03-07T12:42:28;6.22;56.18
71047;SHT31;58703;48.978;8.982;2023-03-07T12:45:03;6.21;55.07
71047;SHT31;58703;48.978;8.982;2023-03-07T12:52:45;6.21;55.04
71047;SHT31;58703;48.978;8.982;2023-03-07T12:55:33;6.56;55.77
71047;SHT31;58703;48.978;8.982;2023-03-07T12:58:05;6.48;55.09
71047;SHT31;58703;48.978;8.982;2023-03-07T13:00:38;6.76;54.69
71047;SHT31;58703;48.978;8.982;2023-03-07T13:03:05;6.95;53.58
71047;SHT31;58703;48.978;8.982;2023-03-07T13:05:35;7.16;54.08
71047;SHT31;58703;48.978;8.982;2023-03-07T13:08:02;7.26;54.01
71047;SHT31;58703;48.978;8.982;2023-03-07T13:10:30;6.90;53.83
71047;SHT31;58703;48.978;8.982;2023-03-07T13:12:56;7.07;54.46
71047;SHT31;58703;48.978;8.982;2023-03-07T13:27:56;7.16;53.14
71047;SHT31;58703;48.978;8.982;2023-03-07T13:30:56;7.65;53.45
71047;SHT31;58703;48.978;8.982;2023-03-07T13:33:28;7.16;53.04
71047;SHT31;58703;48.978;8.982;2023-03-07T13:35:58;7.38;54.81
71047;SHT31;58703;48.978;8.982;2023-03-07T13:38:41;7.23;54.32
71047;SHT31;58703;48.978;8.982;2023-03-07T13:41:11;7.26;53.55
71047;SHT31;58703;48.978;8.982;2023-03-07T13:51:18;7.07;55.73
71047;SHT31;58703;48.978;8.982;2023-03-07T13:54:01;7.41;54.33
71047;SHT31;58703;48.978;8.982;2023-03-07T13:56:39;7.26;54.34
71047;SHT31;58703;48.978;8.982;2023-03-07T14:04:10;8.33;52.28
71047;SHT31;58703;48.978;8.982;2023-03-07T14:09:17;7.07;54.26
71047;SHT31;58703;48.978;8.982;2023-03-07T14:26:10;6.45;56.65
71047;SHT31;58703;48.978;8.982;2023-03-07T14:28:46;6.42;56.95
71047;SHT31;58703;48.978;8.982;2023-03-07T14:31:21;6.71;57.62
71047;SHT31;58703;48.978;8.982;2023-03-07T14:33:47;6.55;56.48
71047;SHT31;58703;48.978;8.982;2023-03-07T14:36:24;6.34;56.53
71047;SHT31;58703;48.978;8.982;2023-03-07T14:38:54;6.50;57.27
71047;SHT31;58703;48.978;8.982;2023-03-07T14:50:33;6.52;57.54
71047;SHT31;58703;48.978;8.982;2023-03-07T14:53:10;6.65;57.34
71047;SHT31;58703;48.978;8.982;2023-03-07T14:55:38;6.82;57.22
71047;SHT31;58703;48.978;8.982;2023-03-07T14:58:05;6.73;57.55
71047;SHT31;58703;48.978;8.982;2023-03-07T15:00:31;6.45;57.43
71047;SHT31;58703;48.978;8.982;2023-03-07T15:03:04;6.48;58.30
71047;SHT31;58703;48.978;8.982;2023-03-07T15:06:00;6.24;57.89
71047;SHT31;58703;48.978;8.982;2023-03-07T15:11:06;6.29;58.09
71047;SHT31;58703;48.978;8.982;2023-03-07T15:16:22;6.29;58.79
71047;SHT31;58703;48.978;8.982;2023-03-07T15:18:59;6.20;58.97
71047;SHT31;58703;48.978;8.982;2023-03-07T15:21:34;6.11;58.54
71047;SHT31;58703;48.978;8.982;2023-03-07T15:24:01;6.11;59.44
71047;SHT31;58703;48.978;8.982;2023-03-07T15:26:27;5.98;59.59
71047;SHT31;58703;48.978;8.982;2023-03-07T15:28:58;5.84;60.07
71047;SHT31;58703;48.978;8.982;2023-03-07T15:31:24;5.83;60.33
71047;SHT31;58703;48.978;8.982;2023-03-07T15:33:51;5.80;60.31
71047;SHT31;58703;48.978;8.982;2023-03-07T15:36:19;5.84;60.53
71047;SHT31;58703;48.978;8.982;2023-03-07T15:38:47;5.81;60.24
71047;SHT31;58703;48.978;8.982;2023-03-07T15:41:28;5.75;60.57
71047;SHT31;58703;48.978;8.982;2023-03-07T15:46:39;5.77;61.47
71047;SHT31;58703;48.978;8.982;2023-03-07T15:49:17;5.69;61.32
71047;SHT31;58703;48.978;8.982;2023-03-07T15:51:49;5.74;61.67
71047;SHT31;58703;48.978;8.982;2023-03-07T15:57:14;5.69;61.87
71047;SHT31;58703;48.978;8.982;2023-03-07T15:59:47;5.64;62.31
71047;SHT31;58703;48.978;8.982;2023-03-07T16:02:37;5.60;62.59
71047;SHT31;58703;48.978;8.982;2023-03-07T16:05:24;5.57;62.15
71047;SHT31;58703;48.978;8.982;2023-03-07T16:07:53;5.60;62.90
71047;SHT31;58703;48.978;8.982;2023-03-07T16:10:20;5.59;63.15
71047;SHT31;58703;48.978;8.982;2023-03-07T16:12:47;5.59;62.75
71047;SHT31;58703;48.978;8.982;2023-03-07T16:15:14;5.63;62.93
71047;SHT31;58703;48.978;8.982;2023-03-07T16:17:39;5.61;63.22
71047;SHT31;58703;48.978;8.982;2023-03-07T16:20:17;5.64;62.95
71047;SHT31;58703;48.978;8.982;2023-03-07T16:22:43;5.61;62.73
71047;SHT31;58703;48.978;8.982;2023-03-07T16:25:10;5.64;62.66
71047;SHT31;58703;48.978;8.982;2023-03-07T16:27:36;5.67;62.35
71047;SHT31;58703;48.978;8.982;2023-03-07T16:30:12;5.66;62.48
71047;SHT31;58703;48.978;8.982;2023-03-07T16:32:38;5.67;62.42
71047;SHT31;58703;48.978;8.982;2023-03-07T16:35:21;5.70;62.17
71047;SHT31;58703;48.978;8.982;2023-03-07T16:37:48;5.66;62.94
71047;SHT31;58703;48.978;8.982;2023-03-07T16:40:13;5.70;61.99
71047;SHT31;58703;48.978;8.982;2023-03-07T16:42:45;5.67;62.29
71047;SHT31;58703;48.978;8.982;2023-03-07T16:45:26;5.61;63.37
71047;SHT31;58703;48.978;8.982;2023-03-07T16:47:58;5.64;62.03
71047;SHT31;58703;48.978;8.982;2023-03-07T16:50:27;5.60;62.44
71047;SHT31;58703;48.978;8.982;2023-03-07T16:52:54;5.60;62.65
71047;SHT31;58703;48.978;8.982;2023-03-07T16:55:20;5.63;62.17
71047;SHT31;58703;48.978;8.982;2023-03-07T16:57:59;5.63;62.01
71047;SHT31;58703;48.978;8.982;2023-03-07T17:00:27;5.64;62.14
71047;SHT31;58703;48.978;8.982;2023-03-07T17:02:54;5.56;63.00
71047;SHT31;58703;48.978;8.982;2023-03-07T17:05:25;5.47;63.21
71047;SHT31;58703;48.978;8.982;2023-03-07T17:07:52;5.59;62.75
71047;SHT31;58703;48.978;8.982;2023-03-07T17:10:18;5.59;62.62
71047;SHT31;58703;48.978;8.982;2023-03-07T17:12:46;5.63;62.58
71047;SHT31;58703;48.978;8.982;2023-03-07T17:15:14;5.60;62.34
71047;SHT31;58703;48.978;8.982;2023-03-07T17:17:41;5.53;63.29
71047;SHT31;58703;48.978;8.982;2023-03-07T17:20:15;5.54;62.81
71047;SHT31;58703;48.978;8.982;2023-03-07T17:22:41;5.52;63.29
71047;SHT31;58703;48.978;8.982;2023-03-07T17:25:08;5.54;63.00
71047;SHT31;58703;48.978;8.982;2023-03-07T17:27:38;5.50;63.29
71047;SHT31;58703;48.978;8.982;2023-03-07T17:30:10;5.46;63.61
71047;SHT31;58703;48.978;8.982;2023-03-07T17:32:39;5.50;63.30
71047;SHT31;58703;48.978;8.982;2023-03-07T17:35:07;5.36;63.97
71047;SHT31;58703;48.978;8.982;2023-03-07T17:37:35;5.26;64.31
71047;SHT31;58703;48.978;8.982;2023-03-07T17:40:02;5.19;64.64
71047;SHT31;58703;48.978;8.982;2023-03-07T17:42:41;5.13;64.57
71047;SHT31;58703;48.978;8.982;2023-03-07T17:45:11;5.15;64.52
71047;SHT31;58703;48.978;8.982;2023-03-07T17:47:37;5.19;64.19
71047;SHT31;58703;48.978;8.982;2023-03-07T17:50:04;5.12;64.39
71047;SHT31;58703;48.978;8.982;2023-03-07T17:52:30;5.08;64.55
71047;SHT31;58703;48.978;8.982;2023-03-07T17:54:56;5.02;64.84
71047;SHT31;58703;48.978;8.982;2023-03-07T17:57:22;4.93;66.36
71047;SHT31;58703;48.978;8.982;2023-03-07T17:59:47;4.79;67.00
71047;SHT31;58703;48.978;8.982;2023-03-07T18:02:13;4.71;67.02
71047;SHT31;58703;48.978;8.982;2023-03-07T18:04:39;4.82;66.52
71047;SHT31;58703;48.978;8.982;2023-03-07T18:07:05;4.91;65.97
71047;SHT31;58703;48.978;8.982;2023-03-07T18:09:31;4.93;65.70
71047;SHT31;58703;48.978;8.982;2023-03-07T18:11:57;4.85;66.89